sensor_id;sensor_type;location;lat;lon;timestamp;temperature;humidity
23731;DHT22;12046;44.702;10.622;2023-05-07T00:01:58;20.60;99.90
23731;DHT22;12046;44.702;10.622;2023-05-07T00:04:24;20.60;99.90
23731;DHT22;12046;44.702;10.622;2023-05-07T00:06:50;20.60;99.90
23731;DHT22;12046;44.702;10.622;2023-05-07T00:09:16;20.50;99.90
23731;DHT22;12046;44.702;10.622;2023-05-07T00:11:42;20.50;99.90
23731;DHT22;12046;44.702;10.622;2023-05-07T00:14:08;20.60;99.90
23731;DHT22;12046;44.702;10.622;2023-05-07T00:16:34;20.50;99.90
23731;DHT22;12046;44.702;10.622;2023-05-07T00:19:00;20.50;99.90
23731;DHT22;12046;44.702;10.622;2023-05-07T00:21:25;20.50;99.90
23731;DHT22;12046;44.702;10.622;2023-05-07T00:23:53;20.50;99.90
23731;DHT22;12046;44.702;10.622;2023-05-07T00:26:18;20.50;99.90
23731;DHT22;12046;44.702;10.622;2023-05-07T00:28:44;20.40;99.90
23731;DHT22;12046;44.702;10.622;2023-05-07T00:31:10;20.40;99.90
23731;DHT22;12046;44.702;10.622;2023-05-07T00:33:36;20.40;99.90
23731;DHT22;12046;44.702;10.622;2023-05-07T00:36:02;20.40;99.90
23731;DHT22;12046;44.702;10.622;2023-05-07T00:38:28;20.40;99.90
23731;DHT22;12046;44.702;10.622;2023-05-07T00:40:54;20.40;99.90
23731;DHT22;12046;44.702;10.622;2023-05-07T00:43:20;20.40;99.90
23731;DHT22;12046;44.702;10.622;2023-05-07T00:45:46;20.30;99.90
23731;DHT22;12046;44.702;10.622;2023-05-07T00:48:11;20.30;99.90
23731;DHT22;12046;44.702;10.622;2023-05-07T00:50:38;20.30;99.90
23731;DHT22;12046;44.702;10.622;2023-05-07T00:53:04;20.20;99.90
23731;DHT22;12046;44.702;10.622;2023-05-07T00:55:30;20.20;99.90
23731;DHT22;12046;44.702;10.622;2023-05-07T00:57:56;20.10;99.90
23731;DHT22;12046;44.702;10.622;2023-05-07T01:00:22;20.10;99.90
23731;DHT22;12046;44.702;10.622;2023-05-07T01:02:47;20.10;99.90
23731;DHT22;12046;44.702;10.622;2023-05-07T01:05:16;20.00;99.90
23731;DHT22;12046;44.702;10.622;2023-05-07T01:07:43;19.90;99.90
23731;DHT22;12046;44.702;10.622;2023-05-07T01:10:10;19.90;99.90
23731;DHT22;12046;44.702;10.622;2023-05-07T01:12:38;19.80;99.90
23731;DHT22;12046;44.702;10.622;2023-05-07T01:15:05;19.80;99.90
23731;DHT22;12046;44.702;10.622;2023-05-07T01:17:34;19.80;99.90
23731;DHT22;12046;44.702;10.622;2023-05-07T01:20:01;19.80;99.90
23731;DHT22;12046;44.702;10.622;2023-05-07T01:22:36;19.80;99.90
23731;DHT22;12046;44.702;10.622;2023-05-07T01:25:03;19.70;99.90
23731;DHT22;12046;44.702;10.622;2023-05-07T01:27:29;19.70;99.90
23731;DHT22;12046;44.702;10.622;2023-05-07T01:29:55;19.70;99.90
23731;DHT22;12046;44.702;10.622;2023-05-07T01:35:35;19.70;99.90
23731;DHT22;12046;44.702;10.622;2023-05-07T01:38:03;19.70;99.90
23731;DHT22;12046;44.702;10.622;2023-05-07T01:40:31;19.70;99.90
23731;DHT22;12046;44.702;10.622;2023-05-07T01:42:58;19.70;99.90
23731;DHT22;12046;44.702;10.622;2023-05-07T01:45:24;19.60;99.90
23731;DHT22;12046;44.702;10.622;2023-05-07T01:47:51;19.60;99.90
23731;DHT22;12046;44.702;10.622;2023-05-07T01:50:19;19.60;99.90
23731;DHT22;12046;44.702;10.622;2023-05-07T01:52:46;19.60;99.90
23731;DHT22;12046;44.702;10.622;2023-05-07T01:55:12;19.50;99.90
23731;DHT22;12046;44.702;10.622;2023-05-07T01:57:38;19.50;99.90
23731;DHT22;12046;44.702;10.622;2023-05-07T02:00:05;19.50;99.90
23731;DHT22;12046;44.702;10.622;2023-05-07T02:02:31;19.40;99.90
23731;DHT22;12046;44.702;10.622;2023-05-07T02:04:57;19.40;99.90
23731;DHT22;12046;44.702;10.622;2023-05-07T02:07:22;19.40;99.90
23731;DHT22;12046;44.702;10.622;2023-05-07T02:09:48;19.30;99.90
23731;DHT22;12046;44.702;10.622;2023-05-07T02:12:15;19.30;99.90
23731;DHT22;12046;44.702;10.622;2023-05-07T02:14:41;19.30;99.90
23731;DHT22;12046;44.702;10.622;2023-05-07T02:17:08;19.30;99.90
23731;DHT22;12046;44.702;10.622;2023-05-07T02:19:34;19.30;99.90
23731;DHT22;12046;44.702;10.622;2023-05-07T02:22:00;19.30;99.90
23731;DHT22;12046;44.702;10.622;2023-05-07T02:24:26;19.30;99.90
23731;DHT22;12046;44.702;10.622;2023-05-07T02:26:51;19.30;99.90
23731;DHT22;12046;44.702;10.622;2023-05-07T02:29:17;19.30;99.90
23731;DHT22;12046;44.702;10.622;2023-05-07T02:31:43;19.30;99.90
23731;DHT22;12046;44.702;10.622;2023-05-07T02:34:09;19.30;99.90
23731;DHT22;12046;44.702;10.622;2023-05-07T02:36:35;19.20;99.90
23731;DHT22;12046;44.702;10.622;2023-05-07T02:39:00;19.20;99.90
23731;DHT22;12046;44.702;10.622;2023-05-07T02:41:28;19.20;99.90
23731;DHT22;12046;44.702;10.622;2023-05-07T02:43:54;19.20;99.90
23731;DHT22;12046;44.702;10.622;2023-05-07T02:46:19;19.20;99.90
23731;DHT22;12046;44.702;10.622;2023-05-07T02:48:45;19.20;99.90
23731;DHT22;12046;44.702;10.622;2023-05-07T02:51:11;19.20;99.90
23731;DHT22;12046;44.702;10.622;2023-05-07T02:53:37;19.10;99.90
23731;DHT22;12046;44.702;10.622;2023-05-07T02:56:04;19.10;99.90
23731;DHT22;12046;44.702;10.622;2023-05-07T02:58:31;19.10;99.90
23731;DHT22;12046;44.702;10.622;2023-05-07T03:00:57;19.10;99.90
23731;DHT22;12046;44.702;10.622;2023-05-07T03:03:23;19.10;99.90
23731;DHT22;12046;44.702;10.622;2023-05-07T03:05:49;19.00;99.90
23731;DHT22;12046;44.702;10.622;2023-05-07T03:08:15;19.00;99.90
23731;DHT22;12046;44.702;10.622;2023-05-07T03:10:40;19.00;99.90
23731;DHT22;12046;44.702;10.622;2023-05-07T03:13:06;18.90;99.90
23731;DHT22;12046;44.702;10.622;2023-05-07T03:15:32;18.90;99.90
23731;DHT22;12046;44.702;10.622;2023-05-07T03:17:58;18.80;99.90
23731;DHT22;12046;44.702;10.622;2023-05-07T03:20:23;18.70;99.90
23731;DHT22;12046;44.702;10.622;2023-05-07T03:22:49;18.70;99.90
23731;DHT22;12046;44.702;10.622;2023-05-07T03:25:15;18.60;99.90
23731;DHT22;12046;44.702;10.622;2023-05-07T03:27:41;18.60;99.90
23731;DHT22;12046;44.702;10.622;2023-05-07T03:30:10;18.50;99.90
23731;DHT22;12046;44.702;10.622;2023-05-07T03:32:36;18.40;99.90
23731;DHT22;12046;44.702;10.622;2023-05-07T03:35:02;18.30;99.90
23731;DHT22;12046;44.702;10.622;2023-05-07T03:37:28;18.30;99.90
23731;DHT22;12046;44.702;10.622;2023-05-07T03:39:54;18.20;99.90
23731;DHT22;12046;44.702;10.622;2023-05-07T03:42:20;18.10;99.90
23731;DHT22;12046;44.702;10.622;2023-05-07T03:44:46;18.10;99.90
23731;DHT22;12046;44.702;10.622;2023-05-07T03:47:12;18.10;99.90
23731;DHT22;12046;44.702;10.622;2023-05-07T03:49:39;18.00;99.90
23731;DHT22;12046;44.702;10.622;2023-05-07T03:52:05;18.00;99.90
23731;DHT22;12046;44.702;10.622;2023-05-07T03:54:31;17.90;99.90
23731;DHT22;12046;44.702;10.622;2023-05-07T03:56:57;17.90;99.90
23731;DHT22;12046;44.702;10.622;2023-05-07T03:59:22;17.90;99.90
23731;DHT22;12046;44.702;10.622;2023-05-07T04:01:48;17.80;99.90
23731;DHT22;12046;44.702;10.622;2023-05-07T04:04:15;17.90;99.90
23731;DHT22;12046;44.702;10.622;2023-05-07T04:06:41;17.80;99.90
23731;DHT22;12046;44.702;10.622;2023-05-07T04:09:07;17.80;99.90
23731;DHT22;12046;44.702;10.622;2023-05-07T04:11:33;17.80;99.90
23731;DHT22;12046;44.702;10.622;2023-05-07T04:13:59;17.80;99.90
23731;DHT22;12046;44.702;10.622;2023-05-07T04:16:25;17.80;99.90
23731;DHT22;12046;44.702;10.622;2023-05-07T04:18:50;17.80;99.90
23731;DHT22;12046;44.702;10.622;2023-05-07T04:21:18;17.80;99.90
23731;DHT22;12046;44.702;10.622;2023-05-07T04:23:44;17.90;99.90
23731;DHT22;12046;44.702;10.622;2023-05-07T04:26:10;17.90;99.90
23731;DHT22;12046;44.702;10.622;2023-05-07T04:28:36;17.80;99.90
23731;DHT22;12046;44.702;10.622;2023-05-07T04:31:02;17.80;99.90
23731;DHT22;12046;44.702;10.622;2023-05-07T04:33:28;17.80;99.90
23731;DHT22;12046;44.702;10.622;2023-05-07T04:35:54;17.80;99.90
23731;DHT22;12046;44.702;10.622;2023-05-07T04:38:20;17.80;99.90
23731;DHT22;12046;44.702;10.622;2023-05-07T04:40:46;17.80;99.90
23731;DHT22;12046;44.702;10.622;2023-05-07T04:43:12;17.80;99.90
23731;DHT22;12046;44.702;10.622;2023-05-07T04:45:38;17.80;99.90
23731;DHT22;12046;44.702;10.622;2023-05-07T04:48:08;17.80;99.90
23731;DHT22;12046;44.702;10.622;2023-05-07T04:50:35;17.80;99.90
23731;DHT22;12046;44.702;10.622;2023-05-07T04:53:00;17.80;99.90
23731;DHT22;12046;44.702;10.622;2023-05-07T04:55:26;17.80;99.90
23731;DHT22;12046;44.702;10.622;2023-05-07T04:57:53;17.80;99.90
23731;DHT22;12046;44.702;10.622;2023-05-07T05:00:19;17.80;99.90
23731;DHT22;12046;44.702;10.622;2023-05-07T05:02:45;17.80;99.90
23731;DHT22;12046;44.702;10.622;2023-05-07T05:05:11;17.80;99.90
23731;DHT22;12046;44.702;10.622;2023-05-07T05:07:37;17.80;99.90
23731;DHT22;12046;44.702;10.622;2023-05-07T05:10:04;17.80;99.90
23731;DHT22;12046;44.702;10.622;2023-05-07T05:12:31;17.80;99.90
23731;DHT22;12046;44.702;10.622;2023-05-07T05:14:57;17.90;99.90
23731;DHT22;12046;44.702;10.622;2023-05-07T05:17:22;17.90;99.90
23731;DHT22;12046;44.702;10.622;2023-05-07T05:19:48;18.00;99.90
23731;DHT22;12046;44.702;10.622;2023-05-07T05:22:14;18.00;99.90
23731;DHT22;12046;44.702;10.622;2023-05-07T05:24:40;18.10;99.90
23731;DHT22;12046;44.702;10.622;2023-05-07T05:27:06;18.10;99.90
23731;DHT22;12046;44.702;10.622;2023-05-07T05:29:32;18.10;99.90
23731;DHT22;12046;44.702;10.622;2023-05-07T05:31:57;18.20;99.90
23731;DHT22;12046;44.702;10.622;2023-05-07T05:34:23;18.10;99.90
23731;DHT22;12046;44.702;10.622;2023-05-07T05:36:49;18.10;99.90
23731;DHT22;12046;44.702;10.622;2023-05-07T05:39:15;18.10;99.90
23731;DHT22;12046;44.702;10.622;2023-05-07T05:41:41;18.10;99.90
23731;DHT22;12046;44.702;10.622;2023-05-07T05:44:07;18.20;99.90
23731;DHT22;12046;44.702;10.622;2023-05-07T05:46:33;18.10;99.90
23731;DHT22;12046;44.702;10.622;2023-05-07T05:48:59;18.20;99.90
23731;DHT22;12046;44.702;10.622;2023-05-07T05:51:25;18.30;99.90
23731;DHT22;12046;44.702;10.622;2023-05-07T05:53:52;18.30;99.90
23731;DHT22;12046;44.702;10.622;2023-05-07T05:56:18;18.40;99.90
23731;DHT22;12046;44.702;10.622;2023-05-07T05:58:44;18.50;99.90
23731;DHT22;12046;44.702;10.622;2023-05-07T06:01:09;18.60;99.90
23731;DHT22;12046;44.702;10.622;2023-05-07T06:03:36;18.70;99.90
23731;DHT22;12046;44.702;10.622;2023-05-07T06:06:02;18.90;99.90
23731;DHT22;12046;44.702;10.622;2023-05-07T06:08:29;18.90;99.90
23731;DHT22;12046;44.702;10.622;2023-05-07T06:10:56;19.00;99.90
23731;DHT22;12046;44.702;10.622;2023-05-07T06:13:22;19.10;99.90
23731;DHT22;12046;44.702;10.622;2023-05-07T06:15:49;19.10;99.90
23731;DHT22;12046;44.702;10.622;2023-05-07T06:18:14;19.30;99.90
23731;DHT22;12046;44.702;10.622;2023-05-07T06:20:40;19.30;99.90
23731;DHT22;12046;44.702;10.622;2023-05-07T06:23:06;19.40;99.90
23731;DHT22;12046;44.702;10.622;2023-05-07T06:25:32;19.40;99.90
23731;DHT22;12046;44.702;10.622;2023-05-07T06:27:58;19.50;99.90
23731;DHT22;12046;44.702;10.622;2023-05-07T06:30:23;19.60;99.90
23731;DHT22;12046;44.702;10.622;2023-05-07T06:32:49;19.70;99.90
23731;DHT22;12046;44.702;10.622;2023-05-07T06:35:15;19.70;99.90
23731;DHT22;12046;44.702;10.622;2023-05-07T06:37:41;19.70;99.90
23731;DHT22;12046;44.702;10.622;2023-05-07T06:40:08;19.80;99.90
23731;DHT22;12046;44.702;10.622;2023-05-07T06:42:35;19.90;99.90
23731;DHT22;12046;44.702;10.622;2023-05-07T06:45:02;20.00;99.90
23731;DHT22;12046;44.702;10.622;2023-05-07T06:47:28;20.00;99.90
23731;DHT22;12046;44.702;10.622;2023-05-07T06:49:54;20.10;99.90
23731;DHT22;12046;44.702;10.622;2023-05-07T06:52:20;20.10;99.90
23731;DHT22;12046;44.702;10.622;2023-05-07T06:54:46;20.20;99.90
23731;DHT22;12046;44.702;10.622;2023-05-07T06:57:11;20.20;99.90
23731;DHT22;12046;44.702;10.622;2023-05-07T06:59:37;20.20;99.90
23731;DHT22;12046;44.702;10.622;2023-05-07T07:02:03;20.30;99.90
23731;DHT22;12046;44.702;10.622;2023-05-07T07:04:29;20.30;99.90
23731;DHT22;12046;44.702;10.622;2023-05-07T07:06:55;20.30;99.90
23731;DHT22;12046;44.702;10.622;2023-05-07T07:09:22;20.30;99.90
23731;DHT22;12046;44.702;10.622;2023-05-07T07:11:48;20.40;99.90
23731;DHT22;12046;44.702;10.622;2023-05-07T07:14:14;20.40;99.90
23731;DHT22;12046;44.702;10.622;2023-05-07T07:16:40;20.50;99.90
23731;DHT22;12046;44.702;10.622;2023-05-07T07:19:06;20.50;99.90
23731;DHT22;12046;44.702;10.622;2023-05-07T07:21:32;20.60;99.90
23731;DHT22;12046;44.702;10.622;2023-05-07T07:23:58;20.60;99.90
23731;DHT22;12046;44.702;10.622;2023-05-07T07:26:24;20.70;99.90
23731;DHT22;12046;44.702;10.622;2023-05-07T07:28:50;20.80;99.90
23731;DHT22;12046;44.702;10.622;2023-05-07T07:31:16;20.90;99.90
23731;DHT22;12046;44.702;10.622;2023-05-07T07:33:45;21.00;99.90
23731;DHT22;12046;44.702;10.622;2023-05-07T07:36:10;21.10;99.90
23731;DHT22;12046;44.702;10.622;2023-05-07T07:38:36;21.20;99.90
23731;DHT22;12046;44.702;10.622;2023-05-07T07:41:02;21.30;99.90
23731;DHT22;12046;44.702;10.622;2023-05-07T07:43:28;21.50;99.90
23731;DHT22;12046;44.702;10.622;2023-05-07T07:45:54;21.60;99.90
23731;DHT22;12046;44.702;10.622;2023-05-07T07:48:20;21.70;99.90
23731;DHT22;12046;44.702;10.622;2023-05-07T07:50:49;21.80;99.90
23731;DHT22;12046;44.702;10.622;2023-05-07T07:53:16;21.80;99.90
23731;DHT22;12046;44.702;10.622;2023-05-07T07:55:42;21.90;99.90
23731;DHT22;12046;44.702;10.622;2023-05-07T07:58:08;21.90;99.90
23731;DHT22;12046;44.702;10.622;2023-05-07T08:00:34;21.90;99.90
23731;DHT22;12046;44.702;10.622;2023-05-07T08:02:59;21.90;99.90
23731;DHT22;12046;44.702;10.622;2023-05-07T08:05:26;21.90;99.90
23731;DHT22;12046;44.702;10.622;2023-05-07T08:07:51;21.90;99.90
23731;DHT22;12046;44.702;10.622;2023-05-07T08:10:19;22.00;99.90
23731;DHT22;12046;44.702;10.622;2023-05-07T08:12:50;22.10;99.90
23731;DHT22;12046;44.702;10.622;2023-05-07T08:15:26;22.20;99.90
23731;DHT22;12046;44.702;10.622;2023-05-07T08:17:52;22.30;99.90
23731;DHT22;12046;44.702;10.622;2023-05-07T08:20:17;22.30;99.90
23731;DHT22;12046;44.702;10.622;2023-05-07T08:22:43;22.40;99.90
23731;DHT22;12046;44.702;10.622;2023-05-07T08:25:09;22.50;99.90
23731;DHT22;12046;44.702;10.622;2023-05-07T08:27:35;22.60;99.90
23731;DHT22;12046;44.702;10.622;2023-05-07T08:30:02;22.70;99.90
23731;DHT22;12046;44.702;10.622;2023-05-07T08:32:27;22.80;99.90
23731;DHT22;12046;44.702;10.622;2023-05-07T08:34:53;22.90;99.90
23731;DHT22;12046;44.702;10.622;2023-05-07T08:37:19;23.00;99.90
23731;DHT22;12046;44.702;10.622;2023-05-07T08:39:45;23.10;99.90
23731;DHT22;12046;44.702;10.622;2023-05-07T08:42:11;23.10;99.90
23731;DHT22;12046;44.702;10.622;2023-05-07T08:44:38;23.30;99.90
23731;DHT22;12046;44.702;10.622;2023-05-07T08:47:07;23.40;99.90
23731;DHT22;12046;44.702;10.622;2023-05-07T08:49:34;23.60;99.90
23731;DHT22;12046;44.702;10.622;2023-05-07T08:52:00;23.70;99.90
23731;DHT22;12046;44.702;10.622;2023-05-07T08:54:28;23.90;99.90
23731;DHT22;12046;44.702;10.622;2023-05-07T08:56:54;24.00;99.60
23731;DHT22;12046;44.702;10.622;2023-05-07T08:59:20;24.10;99.30
23731;DHT22;12046;44.702;10.622;2023-05-07T09:01:46;24.20;99.30
23731;DHT22;12046;44.702;10.622;2023-05-07T09:04:12;24.30;99.10
23731;DHT22;12046;44.702;10.622;2023-05-07T09:06:38;24.40;98.80
23731;DHT22;12046;44.702;10.622;2023-05-07T09:09:07;24.50;98.00
23731;DHT22;12046;44.702;10.622;2023-05-07T09:11:33;24.60;97.80
23731;DHT22;12046;44.702;10.622;2023-05-07T09:13:59;24.60;97.70
23731;DHT22;12046;44.702;10.622;2023-05-07T09:16:30;24.70;97.60
23731;DHT22;12046;44.702;10.622;2023-05-07T09:18:58;24.70;97.40
23731;DHT22;12046;44.702;10.622;2023-05-07T09:21:24;24.80;97.40
23731;DHT22;12046;44.702;10.622;2023-05-07T09:23:51;24.90;97.40
23731;DHT22;12046;44.702;10.622;2023-05-07T09:26:18;25.00;97.20
23731;DHT22;12046;44.702;10.622;2023-05-07T09:28:44;25.10;96.70
23731;DHT22;12046;44.702;10.622;2023-05-07T09:31:12;25.20;96.30
23731;DHT22;12046;44.702;10.622;2023-05-07T09:33:38;25.30;96.10
23731;DHT22;12046;44.702;10.622;2023-05-07T09:36:05;25.30;95.60
23731;DHT22;12046;44.702;10.622;2023-05-07T09:38:36;25.30;95.30
23731;DHT22;12046;44.702;10.622;2023-05-07T09:41:06;25.30;95.50
23731;DHT22;12046;44.702;10.622;2023-05-07T09:43:33;25.40;95.70
23731;DHT22;12046;44.702;10.622;2023-05-07T09:46:14;25.50;95.80
23731;DHT22;12046;44.702;10.622;2023-05-07T09:48:43;25.70;95.70
23731;DHT22;12046;44.702;10.622;2023-05-07T09:51:28;25.90;95.30
23731;DHT22;12046;44.702;10.622;2023-05-07T09:53:56;26.10;94.90
23731;DHT22;12046;44.702;10.622;2023-05-07T09:56:22;26.20;94.80
23731;DHT22;12046;44.702;10.622;2023-05-07T09:58:49;26.40;94.40
23731;DHT22;12046;44.702;10.622;2023-05-07T10:01:17;26.60;93.80
23731;DHT22;12046;44.702;10.622;2023-05-07T10:03:45;26.80;93.40
23731;DHT22;12046;44.702;10.622;2023-05-07T10:06:12;27.00;93.30
23731;DHT22;12046;44.702;10.622;2023-05-07T10:08:38;27.10;93.20
23731;DHT22;12046;44.702;10.622;2023-05-07T10:11:05;27.20;93.00
23731;DHT22;12046;44.702;10.622;2023-05-07T10:13:33;27.30;92.60
23731;DHT22;12046;44.702;10.622;2023-05-07T10:16:06;27.40;92.20
23731;DHT22;12046;44.702;10.622;2023-05-07T10:18:32;27.50;92.00
23731;DHT22;12046;44.702;10.622;2023-05-07T10:21:11;27.50;91.90
23731;DHT22;12046;44.702;10.622;2023-05-07T10:23:50;27.70;91.70
23731;DHT22;12046;44.702;10.622;2023-05-07T10:26:22;27.80;91.10
23731;DHT22;12046;44.702;10.622;2023-05-07T10:28:53;27.80;90.90
23731;DHT22;12046;44.702;10.622;2023-05-07T10:31:50;27.90;90.90
23731;DHT22;12046;44.702;10.622;2023-05-07T10:34:30;27.90;90.60
23731;DHT22;12046;44.702;10.622;2023-05-07T10:36:58;27.90;90.40
23731;DHT22;12046;44.702;10.622;2023-05-07T10:39:24;27.90;90.50
23731;DHT22;12046;44.702;10.622;2023-05-07T10:41:50;28.00;90.50
23731;DHT22;12046;44.702;10.622;2023-05-07T10:44:27;28.10;90.60
23731;DHT22;12046;44.702;10.622;2023-05-07T10:47:13;28.20;90.60
23731;DHT22;12046;44.702;10.622;2023-05-07T10:52:31;28.30;90.30
23731;DHT22;12046;44.702;10.622;2023-05-07T10:57:43;28.50;90.10
23731;DHT22;12046;44.702;10.622;2023-05-07T11:05:31;28.60;89.20
23731;DHT22;12046;44.702;10.622;2023-05-07T11:08:01;28.70;89.20
23731;DHT22;12046;44.702;10.622;2023-05-07T11:10:47;28.70;89.10
23731;DHT22;12046;44.702;10.622;2023-05-07T11:13:14;28.90;88.30
23731;DHT22;12046;44.702;10.622;2023-05-07T11:15:47;28.90;87.70
23731;DHT22;12046;44.702;10.622;2023-05-07T11:18:17;29.10;86.60
23731;DHT22;12046;44.702;10.622;2023-05-07T11:26:03;29.20;86.10
23731;DHT22;12046;44.702;10.622;2023-05-07T11:28:38;29.20;85.00
23731;DHT22;12046;44.702;10.622;2023-05-07T11:31:04;29.20;85.10
23731;DHT22;12046;44.702;10.622;2023-05-07T11:33:30;29.20;84.90
23731;DHT22;12046;44.702;10.622;2023-05-07T11:35:57;29.30;84.60
23731;DHT22;12046;44.702;10.622;2023-05-07T11:38:23;29.30;84.90
23731;DHT22;12046;44.702;10.622;2023-05-07T11:43:17;29.50;84.10
23731;DHT22;12046;44.702;10.622;2023-05-07T11:45:44;29.50;84.00
23731;DHT22;12046;44.702;10.622;2023-05-07T11:48:12;29.50;82.90
23731;DHT22;12046;44.702;10.622;2023-05-07T11:53:26;29.50;81.70
23731;DHT22;12046;44.702;10.622;2023-05-07T11:55:54;29.50;81.80
23731;DHT22;12046;44.702;10.622;2023-05-07T11:58:22;29.40;81.70
23731;DHT22;12046;44.702;10.622;2023-05-07T12:00:49;29.50;82.00
23731;DHT22;12046;44.702;10.622;2023-05-07T12:03:15;29.50;82.20
23731;DHT22;12046;44.702;10.622;2023-05-07T12:05:41;29.50;82.10
23731;DHT22;12046;44.702;10.622;2023-05-07T12:08:07;29.60;81.60
23731;DHT22;12046;44.702;10.622;2023-05-07T12:10:33;29.70;80.90
23731;DHT22;12046;44.702;10.622;2023-05-07T12:12:59;29.70;80.20
23731;DHT22;12046;44.702;10.622;2023-05-07T12:15:25;29.80;79.70
23731;DHT22;12046;44.702;10.622;2023-05-07T12:17:51;29.80;79.00
23731;DHT22;12046;44.702;10.622;2023-05-07T12:20:18;29.90;78.50
23731;DHT22;12046;44.702;10.622;2023-05-07T12:22:44;29.90;78.50
23731;DHT22;12046;44.702;10.622;2023-05-07T12:25:10;30.00;78.50
23731;DHT22;12046;44.702;10.622;2023-05-07T12:27:40;30.00;78.70
23731;DHT22;12046;44.702;10.622;2023-05-07T12:30:06;30.00;78.60
23731;DHT22;12046;44.702;10.622;2023-05-07T12:32:36;30.00;78.60
23731;DHT22;12046;44.702;10.622;2023-05-07T12:35:02;30.10;78.40
23731;DHT22;12046;44.702;10.622;2023-05-07T12:37:28;30.10;78.20
23731;DHT22;12046;44.702;10.622;2023-05-07T12:40:10;30.00;78.40
23731;DHT22;12046;44.702;10.622;2023-05-07T12:42:37;30.00;78.70
23731;DHT22;12046;44.702;10.622;2023-05-07T12:45:15;29.90;77.90
23731;DHT22;12046;44.702;10.622;2023-05-07T12:47:47;29.80;77.80
23731;DHT22;12046;44.702;10.622;2023-05-07T12:50:14;29.80;77.60
23731;DHT22;12046;44.702;10.622;2023-05-07T12:52:40;29.80;77.80
23731;DHT22;12046;44.702;10.622;2023-05-07T12:55:07;29.80;77.80
23731;DHT22;12046;44.702;10.622;2023-05-07T12:57:40;29.90;76.90
23731;DHT22;12046;44.702;10.622;2023-05-07T13:00:06;29.90;76.90
23731;DHT22;12046;44.702;10.622;2023-05-07T13:02:33;30.00;77.20
23731;DHT22;12046;44.702;10.622;2023-05-07T13:05:00;30.10;77.20
23731;DHT22;12046;44.702;10.622;2023-05-07T13:07:26;30.10;76.70
23731;DHT22;12046;44.702;10.622;2023-05-07T13:09:51;30.20;76.40
23731;DHT22;12046;44.702;10.622;2023-05-07T13:12:17;30.20;76.10
23731;DHT22;12046;44.702;10.622;2023-05-07T13:14:43;30.10;76.30
23731;DHT22;12046;44.702;10.622;2023-05-07T13:17:09;30.10;76.40
23731;DHT22;12046;44.702;10.622;2023-05-07T13:19:34;30.00;76.30
23731;DHT22;12046;44.702;10.622;2023-05-07T13:22:03;30.00;76.10
23731;DHT22;12046;44.702;10.622;2023-05-07T13:24:29;29.90;75.90
23731;DHT22;12046;44.702;10.622;2023-05-07T13:26:55;29.70;76.10
23731;DHT22;12046;44.702;10.622;2023-05-07T13:29:21;29.60;76.40
23731;DHT22;12046;44.702;10.622;2023-05-07T13:31:54;29.50;76.60
23731;DHT22;12046;44.702;10.622;2023-05-07T13:34:20;29.40;76.70
23731;DHT22;12046;44.702;10.622;2023-05-07T13:36:46;29.30;76.80
23731;DHT22;12046;44.702;10.622;2023-05-07T13:39:12;29.40;77.30
23731;DHT22;12046;44.702;10.622;2023-05-07T13:41:38;29.40;77.10
23731;DHT22;12046;44.702;10.622;2023-05-07T13:44:04;29.40;76.90
23731;DHT22;12046;44.702;10.622;2023-05-07T13:46:33;29.40;76.50
23731;DHT22;12046;44.702;10.622;2023-05-07T13:48:59;29.30;76.70
23731;DHT22;12046;44.702;10.622;2023-05-07T13:51:25;29.30;76.80
23731;DHT22;12046;44.702;10.622;2023-05-07T13:53:51;29.30;76.80
23731;DHT22;12046;44.702;10.622;2023-05-07T13:56:18;29.20;76.70
23731;DHT22;12046;44.702;10.622;2023-05-07T13:58:44;29.30;76.90
23731;DHT22;12046;44.702;10.622;2023-05-07T14:01:09;29.20;77.00
23731;DHT22;12046;44.702;10.622;2023-05-07T14:03:36;29.30;77.20
23731;DHT22;12046;44.702;10.622;2023-05-07T14:06:03;29.40;77.20
23731;DHT22;12046;44.702;10.622;2023-05-07T14:08:29;29.50;77.20
23731;DHT22;12046;44.702;10.622;2023-05-07T14:10:55;29.60;77.10
23731;DHT22;12046;44.702;10.622;2023-05-07T14:13:22;29.60;76.70
23731;DHT22;12046;44.702;10.622;2023-05-07T14:15:48;29.70;76.30
23731;DHT22;12046;44.702;10.622;2023-05-07T14:18:15;29.70;76.30
23731;DHT22;12046;44.702;10.622;2023-05-07T14:20:41;29.70;75.90
23731;DHT22;12046;44.702;10.622;2023-05-07T14:23:08;29.70;75.90
23731;DHT22;12046;44.702;10.622;2023-05-07T14:25:35;29.70;76.10
23731;DHT22;12046;44.702;10.622;2023-05-07T14:28:00;29.70;76.30
23731;DHT22;12046;44.702;10.622;2023-05-07T14:30:26;29.70;76.60
23731;DHT22;12046;44.702;10.622;2023-05-07T14:32:52;29.80;76.60
23731;DHT22;12046;44.702;10.622;2023-05-07T14:35:18;29.80;76.40
23731;DHT22;12046;44.702;10.622;2023-05-07T14:37:44;29.80;76.40
23731;DHT22;12046;44.702;10.622;2023-05-07T14:40:10;29.80;76.70
23731;DHT22;12046;44.702;10.622;2023-05-07T14:42:36;29.80;76.80
23731;DHT22;12046;44.702;10.622;2023-05-07T14:45:02;29.80;76.70
23731;DHT22;12046;44.702;10.622;2023-05-07T14:47:28;29.70;76.90
23731;DHT22;12046;44.702;10.622;2023-05-07T14:49:54;29.70;77.30
23731;DHT22;12046;44.702;10.622;2023-05-07T14:52:20;29.70;77.40
23731;DHT22;12046;44.702;10.622;2023-05-07T14:54:46;29.60;77.40
23731;DHT22;12046;44.702;10.622;2023-05-07T14:57:14;29.60;77.50
23731;DHT22;12046;44.702;10.622;2023-05-07T15:02:12;29.50;77.70
23731;DHT22;12046;44.702;10.622;2023-05-07T15:04:38;29.60;77.90
23731;DHT22;12046;44.702;10.622;2023-05-07T15:07:14;29.60;77.90
23731;DHT22;12046;44.702;10.622;2023-05-07T15:09:42;29.60;77.60
23731;DHT22;12046;44.702;10.622;2023-05-07T15:12:07;29.50;78.10
23731;DHT22;12046;44.702;10.622;2023-05-07T15:14:34;29.50;77.30
23731;DHT22;12046;44.702;10.622;2023-05-07T15:17:00;29.40;76.80
23731;DHT22;12046;44.702;10.622;2023-05-07T15:19:26;29.30;77.00
23731;DHT22;12046;44.702;10.622;2023-05-07T15:21:58;29.20;77.10
23731;DHT22;12046;44.702;10.622;2023-05-07T15:24:25;29.10;77.30
23731;DHT22;12046;44.702;10.622;2023-05-07T15:26:52;29.00;77.40
23731;DHT22;12046;44.702;10.622;2023-05-07T15:29:18;28.90;77.50
23731;DHT22;12046;44.702;10.622;2023-05-07T15:31:46;28.80;77.30
23731;DHT22;12046;44.702;10.622;2023-05-07T15:34:13;28.80;77.60
23731;DHT22;12046;44.702;10.622;2023-05-07T15:36:40;28.70;78.00
23731;DHT22;12046;44.702;10.622;2023-05-07T15:39:06;28.60;77.90
23731;DHT22;12046;44.702;10.622;2023-05-07T15:41:32;28.60;77.70